sensor_id;sensor_type;location;lat;lon;timestamp;temperature;humidity
16974;DHT22;8603;46.944;7.412;2023-04-24T00:00:18;8.40;99.90
16974;DHT22;8603;46.944;7.412;2023-04-24T00:02:47;8.50;99.90
16974;DHT22;8603;46.944;7.412;2023-04-24T00:05:32;8.50;99.90
16974;DHT22;8603;46.944;7.412;2023-04-24T00:08:14;8.50;99.90
16974;DHT22;8603;46.944;7.412;2023-04-24T00:10:53;8.50;99.90
16974;DHT22;8603;46.944;7.412;2023-04-24T00:13:19;8.50;99.90
16974;DHT22;8603;46.944;7.412;2023-04-24T00:15:45;8.40;99.90
16974;DHT22;8603;46.944;7.412;2023-04-24T00:18:21;8.70;99.90
16974;DHT22;8603;46.944;7.412;2023-04-24T00:20:50;8.80;99.90
16974;DHT22;8603;46.944;7.412;2023-04-24T00:23:24;8.60;99.90
16974;DHT22;8603;46.944;7.412;2023-04-24T00:26:06;8.60;99.90
16974;DHT22;8603;46.944;7.412;2023-04-24T00:28:41;8.70;99.90
16974;DHT22;8603;46.944;7.412;2023-04-24T00:31:06;8.50;99.90
16974;DHT22;8603;46.944;7.412;2023-04-24T00:33:50;8.40;99.90
16974;DHT22;8603;46.944;7.412;2023-04-24T00:36:19;8.50;99.90
16974;DHT22;8603;46.944;7.412;2023-04-24T00:38:50;8.50;99.90
16974;DHT22;8603;46.944;7.412;2023-04-24T00:41:16;8.50;99.90
16974;DHT22;8603;46.944;7.412;2023-04-24T00:43:54;8.50;99.90
16974;DHT22;8603;46.944;7.412;2023-04-24T00:46:22;8.50;99.90
16974;DHT22;8603;46.944;7.412;2023-04-24T00:48:48;8.50;99.90
16974;DHT22;8603;46.944;7.412;2023-04-24T00:51:37;8.60;99.90
16974;DHT22;8603;46.944;7.412;2023-04-24T00:54:18;8.60;99.90
16974;DHT22;8603;46.944;7.412;2023-04-24T00:57:31;8.40;99.90
16974;DHT22;8603;46.944;7.412;2023-04-24T01:00:08;8.50;99.90
16974;DHT22;8603;46.944;7.412;2023-04-24T01:02:41;8.40;99.90
16974;DHT22;8603;46.944;7.412;2023-04-24T01:05:50;8.30;99.90
16974;DHT22;8603;46.944;7.412;2023-04-24T01:08:52;8.40;99.90
16974;DHT22;8603;46.944;7.412;2023-04-24T01:17:57;8.50;99.90
16974;DHT22;8603;46.944;7.412;2023-04-24T01:20:51;8.50;99.90
16974;DHT22;8603;46.944;7.412;2023-04-24T01:23:50;8.50;99.90
16974;DHT22;8603;46.944;7.412;2023-04-24T01:26:30;8.50;99.90
16974;DHT22;8603;46.944;7.412;2023-04-24T01:29:16;8.50;99.90
16974;DHT22;8603;46.944;7.412;2023-04-24T01:32:08;8.50;99.90
16974;DHT22;8603;46.944;7.412;2023-04-24T01:41:19;8.50;99.90
16974;DHT22;8603;46.944;7.412;2023-04-24T01:43:57;8.40;99.90
16974;DHT22;8603;46.944;7.412;2023-04-24T01:46:26;8.30;99.90
16974;DHT22;8603;46.944;7.412;2023-04-24T01:48:52;8.40;99.90
16974;DHT22;8603;46.944;7.412;2023-04-24T01:51:19;8.30;99.90
16974;DHT22;8603;46.944;7.412;2023-04-24T01:53:45;8.40;99.90
16974;DHT22;8603;46.944;7.412;2023-04-24T01:56:11;8.30;99.90
16974;DHT22;8603;46.944;7.412;2023-04-24T01:58:37;8.30;99.90
16974;DHT22;8603;46.944;7.412;2023-04-24T02:01:02;8.10;99.90
16974;DHT22;8603;46.944;7.412;2023-04-24T02:03:40;8.10;99.90
16974;DHT22;8603;46.944;7.412;2023-04-24T02:06:16;8.20;99.90
16974;DHT22;8603;46.944;7.412;2023-04-24T02:08:41;8.10;99.90
16974;DHT22;8603;46.944;7.412;2023-04-24T02:11:09;8.10;99.90
16974;DHT22;8603;46.944;7.412;2023-04-24T02:13:35;8.00;99.90
16974;DHT22;8603;46.944;7.412;2023-04-24T02:16:01;8.10;99.90
16974;DHT22;8603;46.944;7.412;2023-04-24T02:18:29;8.20;99.90
16974;DHT22;8603;46.944;7.412;2023-04-24T02:20:55;8.20;99.90
16974;DHT22;8603;46.944;7.412;2023-04-24T02:23:21;8.20;99.90
16974;DHT22;8603;46.944;7.412;2023-04-24T02:25:46;8.20;99.90
16974;DHT22;8603;46.944;7.412;2023-04-24T02:28:12;8.20;99.90
16974;DHT22;8603;46.944;7.412;2023-04-24T02:30:38;8.40;99.90
16974;DHT22;8603;46.944;7.412;2023-04-24T02:33:04;8.30;99.90
16974;DHT22;8603;46.944;7.412;2023-04-24T02:35:32;8.30;99.90
16974;DHT22;8603;46.944;7.412;2023-04-24T02:38:01;8.30;99.90
16974;DHT22;8603;46.944;7.412;2023-04-24T02:40:35;8.30;99.90
16974;DHT22;8603;46.944;7.412;2023-04-24T02:43:01;8.30;99.90
16974;DHT22;8603;46.944;7.412;2023-04-24T02:45:32;8.30;99.90
16974;DHT22;8603;46.944;7.412;2023-04-24T02:48:13;8.30;99.90
16974;DHT22;8603;46.944;7.412;2023-04-24T02:50:53;8.30;99.90
16974;DHT22;8603;46.944;7.412;2023-04-24T02:53:21;8.30;99.90
16974;DHT22;8603;46.944;7.412;2023-04-24T02:55:48;8.30;99.90
16974;DHT22;8603;46.944;7.412;2023-04-24T02:58:13;8.30;99.90
16974;DHT22;8603;46.944;7.412;2023-04-24T03:01:04;8.30;99.90
16974;DHT22;8603;46.944;7.412;2023-04-24T03:03:35;8.30;99.90
16974;DHT22;8603;46.944;7.412;2023-04-24T03:06:10;8.30;99.90
16974;DHT22;8603;46.944;7.412;2023-04-24T03:08:47;8.30;99.90
16974;DHT22;8603;46.944;7.412;2023-04-24T03:11:31;8.10;99.90
16974;DHT22;8603;46.944;7.412;2023-04-24T03:14:18;8.20;99.90
16974;DHT22;8603;46.944;7.412;2023-04-24T03:17:04;8.20;99.90
16974;DHT22;8603;46.944;7.412;2023-04-24T03:20:15;8.20;99.90
16974;DHT22;8603;46.944;7.412;2023-04-24T03:22:43;8.20;99.90
16974;DHT22;8603;46.944;7.412;2023-04-24T03:25:15;8.30;99.90
16974;DHT22;8603;46.944;7.412;2023-04-24T03:27:41;8.30;99.90
16974;DHT22;8603;46.944;7.412;2023-04-24T03:30:07;8.30;99.90
16974;DHT22;8603;46.944;7.412;2023-04-24T03:32:33;8.40;99.90
16974;DHT22;8603;46.944;7.412;2023-04-24T03:34:59;8.40;99.90
16974;DHT22;8603;46.944;7.412;2023-04-24T03:37:25;8.40;99.90
16974;DHT22;8603;46.944;7.412;2023-04-24T03:39:51;8.40;99.90
16974;DHT22;8603;46.944;7.412;2023-04-24T03:42:17;8.30;99.90
16974;DHT22;8603;46.944;7.412;2023-04-24T03:44:43;8.40;99.90
16974;DHT22;8603;46.944;7.412;2023-04-24T03:47:08;8.40;99.90
16974;DHT22;8603;46.944;7.412;2023-04-24T03:49:34;8.40;99.90
16974;DHT22;8603;46.944;7.412;2023-04-24T03:52:00;8.40;99.90
16974;DHT22;8603;46.944;7.412;2023-04-24T03:54:25;8.40;99.90
16974;DHT22;8603;46.944;7.412;2023-04-24T03:56:51;8.40;99.90
16974;DHT22;8603;46.944;7.412;2023-04-24T03:59:17;8.40;99.90
16974;DHT22;8603;46.944;7.412;2023-04-24T04:01:43;8.40;99.90
16974;DHT22;8603;46.944;7.412;2023-04-24T04:04:09;8.50;99.90
16974;DHT22;8603;46.944;7.412;2023-04-24T04:06:35;8.40;99.90
16974;DHT22;8603;46.944;7.412;2023-04-24T04:09:01;8.40;99.90
16974;DHT22;8603;46.944;7.412;2023-04-24T04:11:27;8.40;99.90
16974;DHT22;8603;46.944;7.412;2023-04-24T04:13:53;8.40;99.90
16974;DHT22;8603;46.944;7.412;2023-04-24T04:16:18;8.20;99.90
16974;DHT22;8603;46.944;7.412;2023-04-24T04:18:44;8.20;99.90
16974;DHT22;8603;46.944;7.412;2023-04-24T04:21:10;8.10;99.90
16974;DHT22;8603;46.944;7.412;2023-04-24T04:23:39;8.10;99.90
16974;DHT22;8603;46.944;7.412;2023-04-24T04:26:05;7.90;99.90
16974;DHT22;8603;46.944;7.412;2023-04-24T04:28:35;8.00;99.90
16974;DHT22;8603;46.944;7.412;2023-04-24T04:31:00;8.00;99.90
16974;DHT22;8603;46.944;7.412;2023-04-24T04:33:26;8.00;99.90
16974;DHT22;8603;46.944;7.412;2023-04-24T04:35:57;8.00;99.90
16974;DHT22;8603;46.944;7.412;2023-04-24T04:38:35;7.90;99.90
16974;DHT22;8603;46.944;7.412;2023-04-24T04:41:08;7.80;99.90
16974;DHT22;8603;46.944;7.412;2023-04-24T04:43:33;7.80;99.90
16974;DHT22;8603;46.944;7.412;2023-04-24T04:46:20;7.80;99.90
16974;DHT22;8603;46.944;7.412;2023-04-24T04:48:53;7.90;99.90
16974;DHT22;8603;46.944;7.412;2023-04-24T04:51:25;7.70;99.90
16974;DHT22;8603;46.944;7.412;2023-04-24T04:54:02;7.70;99.90
16974;DHT22;8603;46.944;7.412;2023-04-24T04:56:28;7.80;99.90
16974;DHT22;8603;46.944;7.412;2023-04-24T04:59:36;7.80;99.90
16974;DHT22;8603;46.944;7.412;2023-04-24T05:02:10;8.00;99.90
16974;DHT22;8603;46.944;7.412;2023-04-24T05:04:35;8.20;99.90
16974;DHT22;8603;46.944;7.412;2023-04-24T05:07:11;8.30;99.90
16974;DHT22;8603;46.944;7.412;2023-04-24T05:12:43;8.50;99.90
16974;DHT22;8603;46.944;7.412;2023-04-24T05:15:22;8.60;99.90
16974;DHT22;8603;46.944;7.412;2023-04-24T05:20:51;8.70;99.90
16974;DHT22;8603;46.944;7.412;2023-04-24T05:26:20;8.90;99.90
16974;DHT22;8603;46.944;7.412;2023-04-24T05:28:45;9.00;99.90
16974;DHT22;8603;46.944;7.412;2023-04-24T05:31:11;9.10;99.90
16974;DHT22;8603;46.944;7.412;2023-04-24T05:33:40;9.20;99.90
16974;DHT22;8603;46.944;7.412;2023-04-24T05:39:09;9.40;99.90
16974;DHT22;8603;46.944;7.412;2023-04-24T05:41:35;9.60;99.90
16974;DHT22;8603;46.944;7.412;2023-04-24T05:44:09;9.60;99.90
16974;DHT22;8603;46.944;7.412;2023-04-24T05:46:45;9.60;99.90
16974;DHT22;8603;46.944;7.412;2023-04-24T05:49:11;9.80;99.90
16974;DHT22;8603;46.944;7.412;2023-04-24T05:51:45;9.90;99.90
16974;DHT22;8603;46.944;7.412;2023-04-24T05:54:13;10.00;99.90
16974;DHT22;8603;46.944;7.412;2023-04-24T05:56:42;10.70;99.90
16974;DHT22;8603;46.944;7.412;2023-04-24T05:59:38;11.10;99.90
16974;DHT22;8603;46.944;7.412;2023-04-24T06:02:13;12.80;99.90
16974;DHT22;8603;46.944;7.412;2023-04-24T06:04:43;14.20;99.90
16974;DHT22;8603;46.944;7.412;2023-04-24T06:07:11;15.30;99.90
16974;DHT22;8603;46.944;7.412;2023-04-24T06:09:39;15.80;99.90
16974;DHT22;8603;46.944;7.412;2023-04-24T06:12:07;15.40;99.90
16974;DHT22;8603;46.944;7.412;2023-04-24T06:14:38;15.00;99.90
16974;DHT22;8603;46.944;7.412;2023-04-24T06:17:03;15.00;99.90
16974;DHT22;8603;46.944;7.412;2023-04-24T06:19:29;15.70;99.90
16974;DHT22;8603;46.944;7.412;2023-04-24T06:21:56;16.60;99.90
16974;DHT22;8603;46.944;7.412;2023-04-24T06:24:21;17.10;99.90
16974;DHT22;8603;46.944;7.412;2023-04-24T06:26:47;17.40;99.90
16974;DHT22;8603;46.944;7.412;2023-04-24T06:29:12;18.00;99.90
16974;DHT22;8603;46.944;7.412;2023-04-24T06:31:38;18.30;99.90
16974;DHT22;8603;46.944;7.412;2023-04-24T06:34:04;18.80;99.90
16974;DHT22;8603;46.944;7.412;2023-04-24T06:36:29;19.50;99.90
16974;DHT22;8603;46.944;7.412;2023-04-24T06:38:56;20.10;99.90
16974;DHT22;8603;46.944;7.412;2023-04-24T06:41:22;20.50;99.90
16974;DHT22;8603;46.944;7.412;2023-04-24T06:43:48;20.90;99.90
16974;DHT22;8603;46.944;7.412;2023-04-24T06:46:13;21.50;99.90
16974;DHT22;8603;46.944;7.412;2023-04-24T06:48:39;21.90;99.90
16974;DHT22;8603;46.944;7.412;2023-04-24T06:51:05;21.70;99.90
16974;DHT22;8603;46.944;7.412;2023-04-24T06:53:31;22.20;99.90
16974;DHT22;8603;46.944;7.412;2023-04-24T06:56:00;23.70;99.90
16974;DHT22;8603;46.944;7.412;2023-04-24T06:58:26;25.40;99.90
16974;DHT22;8603;46.944;7.412;2023-04-24T07:00:51;25.90;97.60
16974;DHT22;8603;46.944;7.412;2023-04-24T07:03:17;26.70;96.40
16974;DHT22;8603;46.944;7.412;2023-04-24T07:05:43;27.00;94.40
16974;DHT22;8603;46.944;7.412;2023-04-24T07:08:08;27.20;94.20
16974;DHT22;8603;46.944;7.412;2023-04-24T07:10:36;27.90;93.30
16974;DHT22;8603;46.944;7.412;2023-04-24T07:13:02;29.00;91.50
16974;DHT22;8603;46.944;7.412;2023-04-24T07:15:28;28.40;89.40
16974;DHT22;8603;46.944;7.412;2023-04-24T07:17:53;27.60;90.10
16974;DHT22;8603;46.944;7.412;2023-04-24T07:20:19;26.10;89.40
16974;DHT22;8603;46.944;7.412;2023-04-24T07:22:44;26.20;90.20
16974;DHT22;8603;46.944;7.412;2023-04-24T07:25:10;26.10;89.40
16974;DHT22;8603;46.944;7.412;2023-04-24T07:27:36;26.50;90.20
16974;DHT22;8603;46.944;7.412;2023-04-24T07:30:03;26.40;87.90
16974;DHT22;8603;46.944;7.412;2023-04-24T07:32:29;25.40;90.20
16974;DHT22;8603;46.944;7.412;2023-04-24T07:34:55;24.90;90.50
16974;DHT22;8603;46.944;7.412;2023-04-24T07:37:20;24.50;90.70
16974;DHT22;8603;46.944;7.412;2023-04-24T07:39:46;23.50;90.50
16974;DHT22;8603;46.944;7.412;2023-04-24T07:42:12;22.80;91.10
16974;DHT22;8603;46.944;7.412;2023-04-24T07:44:37;21.90;91.70
16974;DHT22;8603;46.944;7.412;2023-04-24T07:47:21;21.20;91.90
16974;DHT22;8603;46.944;7.412;2023-04-24T07:49:47;20.40;92.50
16974;DHT22;8603;46.944;7.412;2023-04-24T07:52:13;19.20;94.70
16974;DHT22;8603;46.944;7.412;2023-04-24T07:54:41;18.20;94.90
16974;DHT22;8603;46.944;7.412;2023-04-24T07:57:08;17.10;95.30
16974;DHT22;8603;46.944;7.412;2023-04-24T07:59:34;16.10;98.00
16974;DHT22;8603;46.944;7.412;2023-04-24T08:02:01;15.30;99.60
16974;DHT22;8603;46.944;7.412;2023-04-24T08:04:27;14.80;99.90
16974;DHT22;8603;46.944;7.412;2023-04-24T08:06:53;14.50;99.90
16974;DHT22;8603;46.944;7.412;2023-04-24T08:09:21;14.20;99.90
16974;DHT22;8603;46.944;7.412;2023-04-24T08:11:51;14.00;99.90
16974;DHT22;8603;46.944;7.412;2023-04-24T08:14:22;13.80;99.90
16974;DHT22;8603;46.944;7.412;2023-04-24T08:16:48;13.70;99.90
16974;DHT22;8603;46.944;7.412;2023-04-24T08:19:17;13.70;99.90
16974;DHT22;8603;46.944;7.412;2023-04-24T08:21:51;13.80;99.90
16974;DHT22;8603;46.944;7.412;2023-04-24T08:24:17;14.20;99.90
16974;DHT22;8603;46.944;7.412;2023-04-24T08:26:43;14.20;99.90
16974;DHT22;8603;46.944;7.412;2023-04-24T08:29:11;14.30;99.90
16974;DHT22;8603;46.944;7.412;2023-04-24T08:32:02;14.30;99.90
16974;DHT22;8603;46.944;7.412;2023-04-24T08:34:46;14.30;99.90
16974;DHT22;8603;46.944;7.412;2023-04-24T08:37:12;14.40;99.90
16974;DHT22;8603;46.944;7.412;2023-04-24T08:39:45;14.90;99.90
16974;DHT22;8603;46.944;7.412;2023-04-24T08:45:42;15.90;99.90
16974;DHT22;8603;46.944;7.412;2023-04-24T08:48:46;17.10;98.20
16974;DHT22;8603;46.944;7.412;2023-04-24T08:51:21;19.30;95.00
16974;DHT22;8603;46.944;7.412;2023-04-24T08:53:57;20.30;92.70
16974;DHT22;8603;46.944;7.412;2023-04-24T08:57:15;21.00;91.30
16974;DHT22;8603;46.944;7.412;2023-04-24T09:00:00;22.40;91.50
16974;DHT22;8603;46.944;7.412;2023-04-24T09:03:13;22.60;86.10
16974;DHT22;8603;46.944;7.412;2023-04-24T09:05:47;21.30;84.80
16974;DHT22;8603;46.944;7.412;2023-04-24T09:08:41;19.90;88.60
16974;DHT22;8603;46.944;7.412;2023-04-24T09:11:13;19.10;89.60
16974;DHT22;8603;46.944;7.412;2023-04-24T09:13:42;18.70;88.20
16974;DHT22;8603;46.944;7.412;2023-04-24T09:16:11;18.20;89.20
16974;DHT22;8603;46.944;7.412;2023-04-24T09:18:37;17.90;90.00
16974;DHT22;8603;46.944;7.412;2023-04-24T09:21:12;17.50;88.80
16974;DHT22;8603;46.944;7.412;2023-04-24T09:23:38;16.90;89.90
16974;DHT22;8603;46.944;7.412;2023-04-24T09:26:04;16.20;90.70
16974;DHT22;8603;46.944;7.412;2023-04-24T09:28:45;15.90;91.80
16974;DHT22;8603;46.944;7.412;2023-04-24T09:31:19;15.90;91.60
16974;DHT22;8603;46.944;7.412;2023-04-24T09:33:59;15.90;91.90
16974;DHT22;8603;46.944;7.412;2023-04-24T09:36:42;15.70;91.80
16974;DHT22;8603;46.944;7.412;2023-04-24T09:39:12;15.60;90.90
16974;DHT22;8603;46.944;7.412;2023-04-24T09:44:34;15.50;91.00
16974;DHT22;8603;46.944;7.412;2023-04-24T09:47:38;15.20;92.40
16974;DHT22;8603;46.944;7.412;2023-04-24T09:50:16;15.20;92.10
16974;DHT22;8603;46.944;7.412;2023-04-24T09:53:12;15.50;91.60
16974;DHT22;8603;46.944;7.412;2023-04-24T09:55:49;15.80;91.10
16974;DHT22;8603;46.944;7.412;2023-04-24T09:58:30;16.30;91.20
16974;DHT22;8603;46.944;7.412;2023-04-24T10:01:35;16.70;91.70
16974;DHT22;8603;46.944;7.412;2023-04-24T10:07:14;16.30;91.20
16974;DHT22;8603;46.944;7.412;2023-04-24T10:09:49;16.00;91.80
16974;DHT22;8603;46.944;7.412;2023-04-24T10:12:22;16.00;92.10
16974;DHT22;8603;46.944;7.412;2023-04-24T10:17:50;16.50;91.80
16974;DHT22;8603;46.944;7.412;2023-04-24T10:20:39;16.60;90.00
16974;DHT22;8603;46.944;7.412;2023-04-24T10:23:26;16.50;87.70
16974;DHT22;8603;46.944;7.412;2023-04-24T10:26:09;16.40;89.30
16974;DHT22;8603;46.944;7.412;2023-04-24T10:28:45;16.20;89.10
16974;DHT22;8603;46.944;7.412;2023-04-24T10:31:31;16.40;89.60
16974;DHT22;8603;46.944;7.412;2023-04-24T10:34:02;16.50;88.80
16974;DHT22;8603;46.944;7.412;2023-04-24T10:39:39;17.20;89.80
16974;DHT22;8603;46.944;7.412;2023-04-24T10:42:22;17.30;88.80
16974;DHT22;8603;46.944;7.412;2023-04-24T10:44:48;17.10;86.90
16974;DHT22;8603;46.944;7.412;2023-04-24T10:53:59;17.30;86.60
16974;DHT22;8603;46.944;7.412;2023-04-24T10:59:46;16.70;88.20
16974;DHT22;8603;46.944;7.412;2023-04-24T11:02:16;16.60;87.70
16974;DHT22;8603;46.944;7.412;2023-04-24T11:04:42;16.60;88.60
16974;DHT22;8603;46.944;7.412;2023-04-24T11:07:09;16.70;88.10
16974;DHT22;8603;46.944;7.412;2023-04-24T11:09:36;16.70;89.30
16974;DHT22;8603;46.944;7.412;2023-04-24T11:12:06;16.90;90.20
16974;DHT22;8603;46.944;7.412;2023-04-24T11:17:38;16.90;87.90
16974;DHT22;8603;46.944;7.412;2023-04-24T11:20:09;16.80;89.10
16974;DHT22;8603;46.944;7.412;2023-04-24T11:22:37;16.90;90.40
16974;DHT22;8603;46.944;7.412;2023-04-24T11:25:07;16.90;87.90
16974;DHT22;8603;46.944;7.412;2023-04-24T11:27:40;16.80;88.60
16974;DHT22;8603;46.944;7.412;2023-04-24T11:30:09;16.80;87.60
16974;DHT22;8603;46.944;7.412;2023-04-24T11:32:40;16.70;90.20
16974;DHT22;8603;46.944;7.412;2023-04-24T11:35:20;16.50;89.40
16974;DHT22;8603;46.944;7.412;2023-04-24T11:37:49;16.20;90.40
16974;DHT22;8603;46.944;7.412;2023-04-24T11:40:16;15.90;90.80
16974;DHT22;8603;46.944;7.412;2023-04-24T11:42:44;15.30;91.80
16974;DHT22;8603;46.944;7.412;2023-04-24T11:45:15;15.00;91.60
16974;DHT22;8603;46.944;7.412;2023-04-24T11:47:42;14.70;92.60
16974;DHT22;8603;46.944;7.412;2023-04-24T11:50:10;14.40;92.40
16974;DHT22;8603;46.944;7.412;2023-04-24T11:52:45;14.30;93.30
16974;DHT22;8603;46.944;7.412;2023-04-24T11:57:43;14.20;94.80
16974;DHT22;8603;46.944;7.412;2023-04-24T12:00:18;14.30;95.20
16974;DHT22;8603;46.944;7.412;2023-04-24T12:02:44;14.50;94.80
16974;DHT22;8603;46.944;7.412;2023-04-24T12:05:24;14.80;94.20
16974;DHT22;8603;46.944;7.412;2023-04-24T12:07:51;14.70;94.80
16974;DHT22;8603;46.944;7.412;2023-04-24T12:10:28;14.60;95.20
16974;DHT22;8603;46.944;7.412;2023-04-24T12:12:56;14.40;95.20
16974;DHT22;8603;46.944;7.412;2023-04-24T12:15:23;14.00;96.30
16974;DHT22;8603;46.944;7.412;2023-04-24T12:17:51;13.90;97.10
16974;DHT22;8603;46.944;7.412;2023-04-24T12:20:17;13.90;97.30
16974;DHT22;8603;46.944;7.412;2023-04-24T12:22:53;14.30;97.20
16974;DHT22;8603;46.944;7.412;2023-04-24T12:25:27;14.80;97.40
16974;DHT22;8603;46.944;7.412;2023-04-24T12:30:29;15.40;97.10
16974;DHT22;8603;46.944;7.412;2023-04-24T12:32:57;15.30;95.00
16974;DHT22;8603;46.944;7.412;2023-04-24T12:35:29;15.30;95.10
16974;DHT22;8603;46.944;7.412;2023-04-24T12:37:55;15.40;94.10
16974;DHT22;8603;46.944;7.412;2023-04-24T12:40:39;15.30;94.10
16974;DHT22;8603;46.944;7.412;2023-04-24T12:43:38;15.30;94.60
16974;DHT22;8603;46.944;7.412;2023-04-24T12:46:30;15.50;94.40
16974;DHT22;8603;46.944;7.412;2023-04-24T12:49:44;15.50;94.40
16974;DHT22;8603;46.944;7.412;2023-04-24T12:52:26;15.60;94.40
16974;DHT22;8603;46.944;7.412;2023-04-24T12:54:58;15.90;94.30
16974;DHT22;8603;46.944;7.412;2023-04-24T12:57:35;16.20;93.90
16974;DHT22;8603;46.944;7.412;2023-04-24T13:00:27;16.10;94.80
16974;DHT22;8603;46.944;7.412;2023-04-24T13:03:01;15.90;95.20
16974;DHT22;8603;46.944;7.412;2023-04-24T13:05:28;15.80;94.30
16974;DHT22;8603;46.944;7.412;2023-04-24T13:07:57;16.00;94.50
16974;DHT22;8603;46.944;7.412;2023-04-24T13:10:53;16.20;94.90
16974;DHT22;8603;46.944;7.412;2023-04-24T13:13:43;16.50;93.90
16974;DHT22;8603;46.944;7.412;2023-04-24T13:16:12;16.70;93.50
16974;DHT22;8603;46.944;7.412;2023-04-24T13:19:00;16.70;92.40
16974;DHT22;8603;46.944;7.412;2023-04-24T13:21:30;16.70;92.80
16974;DHT22;8603;46.944;7.412;2023-04-24T13:24:46;16.70;91.60
16974;DHT22;8603;46.944;7.412;2023-04-24T13:28:06;16.80;92.70
16974;DHT22;8603;46.944;7.412;2023-04-24T13:30:40;16.60;91.90
16974;DHT22;8603;46.944;7.412;2023-04-24T13:33:07;16.50;92.40
16974;DHT22;8603;46.944;7.412;2023-04-24T13:35:54;16.50;91.70
16974;DHT22;8603;46.944;7.412;2023-04-24T13:41:44;16.50;92.80
16974;DHT22;8603;46.944;7.412;2023-04-24T13:47:04;16.00;92.90
16974;DHT22;8603;46.944;7.412;2023-04-24T13:49:38;16.00;93.00
16974;DHT22;8603;46.944;7.412;2023-04-24T13:52:04;16.10;92.30
16974;DHT22;8603;46.944;7.412;2023-04-24T13:54:29;16.20;92.00
16974;DHT22;8603;46.944;7.412;2023-04-24T13:56:57;16.10;92.00
16974;DHT22;8603;46.944;7.412;2023-04-24T13:59:26;16.20;91.40
16974;DHT22;8603;46.944;7.412;2023-04-24T14:01:52;16.10;92.20
16974;DHT22;8603;46.944;7.412;2023-04-24T14:04:17;15.90;91.70
16974;DHT22;8603;46.944;7.412;2023-04-24T14:06:49;15.70;92.10
16974;DHT22;8603;46.944;7.412;2023-04-24T14:09:17;15.60;92.40
16974;DHT22;8603;46.944;7.412;2023-04-24T14:11:58;15.40;92.60
16974;DHT22;8603;46.944;7.412;2023-04-24T14:14:24;15.50;93.00
16974;DHT22;8603;46.944;7.412;2023-04-24T14:17:03;15.70;92.70
16974;DHT22;8603;46.944;7.412;2023-04-24T14:19:35;15.80;92.50
16974;DHT22;8603;46.944;7.412;2023-04-24T14:22:01;15.60;92.60
16974;DHT22;8603;46.944;7.412;2023-04-24T14:24:34;15.70;93.10
16974;DHT22;8603;46.944;7.412;2023-04-24T14:27:06;15.80;93.10
16974;DHT22;8603;46.944;7.412;2023-04-24T14:30:07;15.80;93.30
16974;DHT22;8603;46.944;7.412;2023-04-24T14:32:51;16.00;93.00
16974;DHT22;8603;46.944;7.412;2023-04-24T14:35:48;16.20;92.70
16974;DHT22;8603;46.944;7.412;2023-04-24T14:38:54;15.90;93.50
16974;DHT22;8603;46.944;7.412;2023-04-24T14:41:39;15.70;93.90
16974;DHT22;8603;46.944;7.412;2023-04-24T14:44:41;15.40;94.00
16974;DHT22;8603;46.944;7.412;2023-04-24T14:47:44;15.40;94.20
16974;DHT22;8603;46.944;7.412;2023-04-24T14:50:33;15.40;93.60
16974;DHT22;8603;46.944;7.412;2023-04-24T14:53:01;15.50;93.30
16974;DHT22;8603;46.944;7.412;2023-04-24T14:55:33;15.20;93.20
16974;DHT22;8603;46.944;7.412;2023-04-24T14:58:03;14.80;93.20
16974;DHT22;8603;46.944;7.412;2023-04-24T15:00:47;14.70;93.40
16974;DHT22;8603;46.944;7.412;2023-04-24T15:03:25;14.70;93.60
16974;DHT22;8603;46.944;7.412;2023-04-24T15:05:57;14.70;93.60
16974;DHT22;8603;46.944;7.412;2023-04-24T15:08:24;14.80;93.10
16974;DHT22;8603;46.944;7.412;2023-04-24T15:10:49;14.80;93.70
16974;DHT22;8603;46.944;7.412;2023-04-24T15:13:18;14.80;93.10
16974;DHT22;8603;46.944;7.412;2023-04-24T15:15:46;14.70;93.20
16974;DHT22;8603;46.944;7.412;2023-04-24T15:18:12;14.80;93.80
16974;DHT22;8603;46.944;7.412;2023-04-24T15:20:38;14.80;93.30
16974;DHT22;8603;46.944;7.412;2023-04-24T15:23:17;14.70;93.50
16974;DHT22;8603;46.944;7.412;2023-04-24T15:25:43;14.80;92.70
16974;DHT22;8603;46.944;7.412;2023-04-24T15:28:09;14.90;92.70
16974;DHT22;8603;46.944;7.412;2023-04-24T15:30:35;15.00;93.20
16974;DHT22;8603;46.944;7.412;2023-04-24T15:33:01;15.00;92.10
16974;DHT22;8603;46.944;7.412;2023-04-24T15:35:27;15.20;91.80
16974;DHT22;8603;46.944;7.412;2023-04-24T15:37:52;15.20;91.90
16974;DHT22;8603;46.944;7.412;2023-04-24T15:40:18;15.20;92.00
16974;DHT22;8603;46.944;7.412;2023-04-24T15:42:44;15.10;91.20
16974;DHT22;8603;46.944;7.412;2023-04-24T15:45:14;15.00;92.20
16974;DHT22;8603;46.944;7.412;2023-04-24T15:47:39;14.80;92.00
16974;DHT22;8603;46.944;7.412;2023-04-24T15:50:06;14.50;92.20
16974;DHT22;8603;46.944;7.412;2023-04-24T15:52:36;14.30;92.50
16974;DHT22;8603;46.944;7.412;2023-04-24T15:55:03;14.10;92.40
16974;DHT22;8603;46.944;7.412;2023-04-24T15:57:35;13.90;93.00
16974;DHT22;8603;46.944;7.412;2023-04-24T16:00:02;13.70;93.00
16974;DHT22;8603;46.944;7.412;2023-04-24T16:02:31;13.60;93.50
16974;DHT22;8603;46.944;7.412;2023-04-24T16:04:57;13.60;94.00
16974;DHT22;8603;46.944;7.412;2023-04-24T16:07:28;13.70;93.70
16974;DHT22;8603;46.944;7.412;2023-04-24T16:10:25;13.80;94.50
16974;DHT22;8603;46.944;7.412;2023-04-24T16:12:57;13.80;94.30
16974;DHT22;8603;46.944;7.412;2023-04-24T16:15:26;13.90;93.60
16974;DHT22;8603;46.944;7.412;2023-04-24T16:17:54;13.90;93.30
16974;DHT22;8603;46.944;7.412;2023-04-24T16:20:25;13.70;93.40
16974;DHT22;8603;46.944;7.412;2023-04-24T16:23:22;13.70;93.60
16974;DHT22;8603;46.944;7.412;2023-04-24T16:25:57;13.70;93.10
16974;DHT22;8603;46.944;7.412;2023-04-24T16:28:42;13.70;92.90
16974;DHT22;8603;46.944;7.412;2023-04-24T16:31:11;13.60;91.70
16974;DHT22;8603;46.944;7.412;2023-04-24T16:33:39;13.50;92.30
16974;DHT22;8603;46.944;7.412;2023-04-24T16:36:11;13.40;92.60
16974;DHT22;8603;46.944;7.412;2023-04-24T16:38:38;13.30;93.30
16974;DHT22;8603;46.944;7.412;2023-04-24T16:41:03;13.20;93.80
16974;DHT22;8603;46.944;7.412;2023-04-24T16:43:38;13.10;93.80
16974;DHT22;8603;46.944;7.412;2023-04-24T16:46:04;13.00;94.20
16974;DHT22;8603;46.944;7.412;2023-04-24T16:48:33;12.90;94.50
16974;DHT22;8603;46.944;7.412;2023-04-24T16:50:59;12.80;94.60
16974;DHT22;8603;46.944;7.412;2023-04-24T16:53:25;12.90;95.00
16974;DHT22;8603;46.944;7.412;2023-04-24T16:55:50;12.80;95.00
16974;DHT22;8603;46.944;7.412;2023-04-24T16:58:16;12.80;95.30
16974;DHT22;8603;46.944;7.412;2023-04-24T17:00:42;12.70;95.50
16974;DHT22;8603;46.944;7.412;2023-04-24T17:03:09;12.70;95.70
16974;DHT22;8603;46.944;7.412;2023-04-24T17:05:34;12.70;95.70
16974;DHT22;8603;46.944;7.412;2023-04-24T17:08:03;12.70;95.70
16974;DHT22;8603;46.944;7.412;2023-04-24T17:10:31;12.70;96.10
16974;DHT22;8603;46.944;7.412;2023-04-24T17:12:56;12.70;96.30
16974;DHT22;8603;46.944;7.412;2023-04-24T17:15:24;12.70;96.50
16974;DHT22;8603;46.944;7.412;2023-04-24T17:17:50;12.60;96.90
16974;DHT22;8603;46.944;7.412;2023-04-24T17:20:16;12.70;96.10
16974;DHT22;8603;46.944;7.412;2023-04-24T17:22:42;12.70;95.80
16974;DHT22;8603;46.944;7.412;2023-04-24T17:25:08;12.70;96.40
16974;DHT22;8603;46.944;7.412;2023-04-24T17:27:33;12.70;96.60
16974;DHT22;8603;46.944;7.412;2023-04-24T17:30:02;12.70;96.80
16974;DHT22;8603;46.944;7.412;2023-04-24T17:32:35;12.70;96.80